カンクン国際空港の過去48時間の天気

カンクン国際空港 (Cancun International Airport)

現在時刻: 10/28 11:10 CST (10/28 17:10 UTC) 以下の時間は現地時間です。

過去48時間のMETAR気象情報
時間 風向 風速(m/s) 視程 気温(℃) 湿度(%) 気圧(hPa) 天気現象
28 10:47 南東 3 10km以上 27 89 1014
28 10:20 南東 3 10km以上 26 94 1014
28 09:48 南東 4 10km以上 26 89 1015 弱い雨
28 09:02 3 8050m 24 100 1015 弱い雨
28 07:44 3 4850m 25 94 1013
28 05:46 南東 4 10km以上 28 84 1011.6
28 04:48 南東 4 10km以上 28 84 1012
28 03:48 南東 3 10km以上 28 84 1011
28 02:46 南東 4 10km以上 28 84 1011.3
28 01:42 南東 5 10km以上 27 84 1011
28 00:41 南東 2 10km以上 27 84 1012
27 23:48 南東 3 10km以上 27 89 1012.1
27 22:41 南東 4 10km以上 28 79 1012
27 21:41 南東 5 10km以上 27 89 1012
27 20:46 南東 5 10km以上 28 84 1012
27 19:42 南東 6 10km以上 28 84 1012
27 18:40 南東 6 10km以上 28 84 1011
27 17:42 東南東 8 10km以上 28 84 1010.3
27 16:45 南東 8 10km以上 28 84 1010
27 15:42 東南東 7 10km以上 28 84 1009
27 14:46 南東 5 10km以上 28 84 1009.2
27 13:45 南東 8 10km以上 28 79 1009
27 12:43 南東 2 10km以上 28 84 1010
27 11:46 2 10km以上 29 79 1010.6
27 10:46 南南東 2 10km以上 29 74 1011
27 09:49 南東 3 10km以上 28 84 1011
27 08:45 東南東 2 10km以上 24 94 1010.9
27 07:53 南東 2 8050m 23 83 1011 弱い雨
27 06:52 南東 7 8050m 25 78 1010 弱い雨
27 05:42 南東 5 10km以上 26 84 1008.1
27 04:43 南東 6 8050m 25 78 1008 弱い雨
27 03:41 南南東 7 8050m 24 89 1007 弱い雨
27 02:44 東南東 12 8050m 24 89 1007
27 01:43 南東 14 8050m 24 89 1005
27 00:41 東南東 5 8050m 24 89 1006
26 23:43 南東 14 8050m 23 94 1005.3
26 22:42 東南東 14 8050m 25 94 1005
26 21:44 東南東 16 8050m 26 84 1004
26 21:23 16 8050m 26 89 1004
26 20:41 14 10km以上 27 74 1004.6
26 19:43 東南東 19 10km以上 28 70 1004
26 18:44 東北東 19 10km以上 27 100 1004
26 17:40 12 10km以上 27 79 1004.7
26 16:41 10 10km以上 28 74 1005
26 15:42 10 10km以上 28 74 1005
26 14:42 10 8050m 27 84 1005.3 弱い雨
26 13:44 9 10km以上 29 70 1006
26 12:42 東北東 10 10km以上 30 66 1006
26 11:48 9 10km以上 30 66 1007.7
MMUN 281647Z 14006KT 7SM FEW010 BKN080 27/25 A2993 RMK 6//// 8/170 OCNL DROPS CI
MMUN 281620Z 13005KT 7SM FEW015 BKN080 OVC100 26/25 A2994 RMK 8/17/ RAE10 SC BINOVC
MMUN 281548Z 14008KT 6SM -RA SCT015 BKN080 OVC100 26/24 A2996 RMK 6//// 8/77/ SC
MMUN 281502Z 17006KT 5SM -RA BKN018 OVC080 24/24 A2996 RMK 8/77/
MMUN 281344Z 19005KT 3SM RA BKN015TCU OVC100 25/24 A2992 RMK 6//// 8/27/ RAB39
MMUN 281146Z 13008KT 7SM SCT015 BKN100 28/25 A2987 RMK SLP116 52003 935 8/130 MDT CU CI
MMUN 281048Z 13007KT 7SM SCT015 BKN100 BKN250 28/25 A2987 RMK 8/578
MMUN 280948Z 13006KT 7SM SCT015 SCT100 BKN250 28/25 A2986 RMK 8/578
MMUN 280846Z 13007KT 7SM SCT015 SCT100 28/25 A2986 RMK SLP113 57008 935 8/130 CI
MMUN 280742Z 13009KT 7SM FEW015 SCT100 SCT250 27/24 A2986 RMK 8/138
MMUN 280641Z 13004KT 7SM SCT015 BKN100 BKN250 27/24 A2988 RMK 8/138
MMUN 280548Z 14005KT 7SM SCT015 BKN100 BKN250 27/25 A2988 RMK SLP121 52001 942 8/138
MMUN 280441Z 14007KT 7SM SCT015 BKN100 BKN250 28/24 A2989 RMK 8/138
MMUN 280341Z 14009KT 7SM FEW015 BKN250 27/25 A2989 RMK 8/508 AC
MMUN 280246Z 13009KT 7SM SCT015 BKN250 28/25 A2988 RMK SLP120 52017 943 8/108 AC
MMUN 280142Z 13012G23KT 7SM SCT015 BKN100 BKN250 28/25 A2987 RMK 8/578
MMUN 280040Z 13012KT 7SM SCT015 BKN100 BKN250 28/25 A2985 RMK 8/578
MMUN 272342Z 12016KT 7SM SCT015 BKN100 OVC250 28/25 A2983 RMK SLP103 52011 942 8/177 SC
MMUN 272245Z 13016KT 7SM SCT015 BKN100 OVC250 28/25 A2981 RMK 8/177 MDT CU SC
MMUN 272142Z 12014KT 7SM SCT015TCU OVC100 28/25 A2980 RMK 8/27/
MMUN 272046Z 13010KT 7SM BKN015TCU OVC100 28/25 A2980 RMK SLP092 57014 939 8/27/ OCNL DROPS
MMUN 271945Z 13015KT 7SM SCT015CB OVC100 28/24 A2980 RMK 8/37/
MMUN 271843Z 14003KT 6SM SCT015TCU OVC100 28/25 A2981 RMK 8/27/
MMUN 271746Z 17004KT 6SM SCT015TCU OVC100 29/25 A2984 RMK SLP106 57003 919 8/27/
MMUN 271646Z 16004KT 6SM SCT015 OVC100 29/24 A2985 RMK 8/77/
MMUN 271549Z 14006KT 6SM BKN015 OVC100 28/25 A2985 RMK 8/77/
MMUN 271445Z 12003KT 7SM BKN015 OVC100 24/23 A2985 RMK SLP109 52018 915 8/77/ INTMNT -RA
MMUN 271353Z 14004G16KT 5SM -RA BKN015 OVC100 23/20 A2985 RMK 6//// 8/77/
MMUN 271252Z 14014G26KT 5SM -RA BKN015 OVC080 25/21 A2981 RMK 60005 8/77/
MMUN 271142Z 14010KT 7SM BKN015 OVC080 26/23 A2976 RMK SLP081 52011 902 6//// 8/77/ RAE30
MMUN 271043Z 14012KT 5SM -RA BKN015 OVC080 25/21 A2976 RMK 6//// 8/77/
MMUN 270941Z 15013G30KT 5SM -RA BKN015 OVC080 24/22 A2975 RMK 6//// 8/77/
MMUN 270844Z 12023G35KT 5SM RA BKN015 OVC080 24/22 A2972 RMK SLP070 52017 900 6//// 8/77/
MMUN 270743Z 13027G39KT 5SM RA OVC080 24/22 A2969 RMK 6//// 8/08/
MMUN 270641Z 12009G40KT 5SM RA OVC080 24/22 A2971 RMK 6//// 8/07/
MMUN 270543Z 14028G55KT 5SM RA OVC080 23/22 A2970 RMK SLP053 52008 979 6//// 8/08/
MMUN 270442Z 11028G46KT 5SM OVC080 25/24 A2968 RMK 6//// 8/07/
MMUN 270344Z 11031G44KT 5SM RA OVC080 26/23 A2966 RMK 6//// 8/07/
MMUN 270323Z 10031G51KT 5SM RA OVC080 26/24 A2966 RMK 8/08/ RAB15
MMUN 270241Z 09028G46KT 7SM OVC080 27/22 A2967 RMK SLP046 57002 990 8/07/
MMUN 270143Z 11037G49KT 7SM OVC080 28/22 A2966 RMK 8/07/
MMUN 270044Z 07037KT 7SM SCT015 OVC080 27/27 A2966 RMK 8/77/
MMUN 262340Z 09024KT 7SM BKN015 OVC080 27/23 A2966 RMK SLP047 57006 978 8/77/
MMUN 262241Z 08019KT 6SM BKN015 OVC080 28/23 A2967 RMK 8/77/
MMUN 262142Z 09020KT 6SM BKN015 OVC080 28/23 A2967 RMK 60005 8/77/ PCPN NW
MMUN 262042Z 09019KT 5SM -RA BKN015 BKN080 OVC250 27/24 A2969 RMK SLP053 57024 966 60005 8/777 RAB30
MMUN 261944Z 09017KT 7SM BKN015 BKN080 OVC250 29/23 A2970 RMK 8/777
MMUN 261842Z 07019KT 7SM BKN015 BKN250 30/23 A2972 RMK 8/108 MDT CU
MMUN 261748Z 08017KT 7SM BKN015 BKN250 30/23 A2975 RMK SLP077 57017 965 8/108 MDT CU